Time;durP1;ratioP1;P1;durP2;ratioP2;P2;SDS_P1;SDS_P2;PMS_P1;PMS_P2;Temp;Humidity;BMP_temperature;BMP_pressure;BME280_temperature;BME280_humidity;BME280_pressure;Samples;Min_cycle;Max_cycle;Signal;HPM_P1;HPM_P2
2023/01/14 00:01:20;;;;;;;7.97;1.75;;;7.00;99.90;;;5.42;100.00;100349.28;4996084;28;20196;-75
2023/01/14 00:03:47;;;;;;;6.65;1.60;;;7.00;99.90;;;5.40;100.00;100344.06;5011228;28;20031;-75
2023/01/14 00:06:16;;;;;;;8.07;1.50;;;7.00;99.90;;;5.36;100.00;100341.94;4996232;28;20038;-76
2023/01/14 00:08:42;;;;;;;6.63;1.40;;;6.90;99.90;;;5.32;100.00;100360.41;4996501;28;20041;-76
2023/01/14 00:11:13;;;;;;;6.78;1.48;;;6.90;99.90;;;5.37;100.00;100357.16;4996780;28;20035;-76
2023/01/14 00:13:40;;;;;;;4.50;1.42;;;6.90;99.90;;;5.41;100.00;100371.97;5001992;28;20213;-76
2023/01/14 00:16:12;;;;;;;6.15;1.70;;;7.00;99.90;;;5.42;100.00;100369.06;4995750;28;20034;-76
2023/01/14 00:18:38;;;;;;;7.35;1.70;;;7.00;99.90;;;5.47;100.00;100358.53;4995812;28;20414;-75
2023/01/14 00:21:14;;;;;;;9.25;1.50;;;7.10;99.90;;;5.55;100.00;100354.84;4996439;28;20041;-75
2023/01/14 00:23:41;;;;;;;6.28;1.55;;;7.10;99.90;;;5.60;100.00;100367.81;4996707;28;20501;-75
2023/01/14 00:26:11;;;;;;;7.93;1.65;;;7.20;99.90;;;5.69;100.00;100368.53;4995476;28;20659;-75
2023/01/14 00:28:37;;;;;;;8.88;1.40;;;7.30;99.90;;;5.66;100.00;100366.22;5001032;28;20030;-76
2023/01/14 00:31:11;;;;;;;5.15;1.27;;;7.30;99.90;;;5.64;100.00;100379.09;4995593;28;20478;-76
2023/01/14 00:33:38;;;;;;;5.57;1.30;;;7.20;99.90;;;5.64;100.00;100382.63;4995900;28;20114;-76
2023/01/14 00:36:08;;;;;;;5.05;1.33;;;7.20;99.90;;;5.64;100.00;100384.53;4995655;28;20039;-76
2023/01/14 00:38:35;;;;;;;6.90;1.30;;;7.20;99.90;;;5.69;100.00;100388.31;5000680;28;20037;-77
2023/01/14 00:41:25;;;;;;;8.63;1.75;;;7.20;99.90;;;5.81;100.00;100383.25;4996692;28;20093;-77
2023/01/14 00:43:55;;;;;;;5.25;1.42;;;7.30;99.90;;;5.80;100.00;100389.69;4999948;28;20096;-76
2023/01/14 00:46:26;;;;;;;5.97;1.65;;;7.40;99.90;;;5.83;100.00;100386.59;4995479;28;20390;-76
2023/01/14 00:48:52;;;;;;;7.45;1.45;;;7.40;99.90;;;5.90;100.00;100383.97;4995409;28;20044;-76
2023/01/14 00:51:19;;;;;;;5.43;1.40;;;7.50;99.90;;;5.88;100.00;100394.16;4995597;28;20030;-77
2023/01/14 00:53:45;;;;;;;5.85;1.38;;;7.50;99.90;;;5.80;100.00;100386.16;4995675;28;20042;-76
2023/01/14 00:56:14;;;;;;;5.22;1.70;;;7.40;99.90;;;5.70;100.00;100375.63;5007900;28;20126;-76
2023/01/14 00:58:40;;;;;;;7.38;1.75;;;7.30;99.90;;;5.63;100.00;100380.97;4995507;28;20042;-76
2023/01/14 01:01:07;;;;;;;6.00;1.40;;;7.20;99.90;;;5.61;100.00;100394.69;4994764;28;20038;-76
2023/01/14 01:03:39;;;;;;;6.07;1.42;;;7.20;99.90;;;5.54;100.00;100393.75;4994716;28;20030;-76
2023/01/14 01:06:05;;;;;;;6.97;1.60;;;7.10;99.90;;;5.52;100.00;100397.72;4998623;28;20089;-75
2023/01/14 01:08:32;;;;;;;8.57;1.42;;;7.10;99.90;;;5.48;100.00;100397.22;5000684;28;20034;-76
2023/01/14 01:10:59;;;;;;;10.10;1.98;;;7.10;99.90;;;5.43;100.00;100402.38;5007867;28;20466;-76
2023/01/14 01:13:25;;;;;;;5.50;1.50;;;7.00;99.90;;;5.36;100.00;100396.06;4995024;28;20199;-77
2023/01/14 01:15:52;;;;;;;4.82;1.50;;;7.00;99.90;;;5.37;100.00;100400.44;5010343;28;20546;-76
2023/01/14 01:18:19;;;;;;;7.25;1.50;;;7.00;99.90;;;5.40;100.00;100419.00;4995449;28;20022;-77
2023/01/14 01:20:45;;;;;;;6.25;1.55;;;7.00;99.90;;;5.40;100.00;100409.00;4994606;28;20229;-77
2023/01/14 01:23:13;;;;;;;8.50;1.73;;;7.00;99.90;;;5.45;100.00;100419.25;4993557;28;20058;-77
2023/01/14 01:25:38;;;;;;;6.93;1.58;;;7.00;99.90;;;5.35;100.00;100405.19;4998603;28;20038;-76
2023/01/14 01:28:05;;;;;;;6.72;1.67;;;7.00;99.90;;;5.35;100.00;100407.91;4998474;28;20092;-75
2023/01/14 01:30:31;;;;;;;4.90;1.48;;;6.90;99.90;;;5.37;100.00;100419.38;5000155;28;20041;-75
2023/01/14 01:32:57;;;;;;;5.95;1.55;;;6.90;99.90;;;5.35;100.00;100414.13;5007216;28;20084;-75
2023/01/14 01:35:24;;;;;;;5.20;1.70;;;6.90;99.90;;;5.21;100.00;100410.41;4994676;28;20482;-75
2023/01/14 01:37:51;;;;;;;7.20;1.70;;;6.80;99.90;;;5.20;100.00;100419.56;4994473;28;20045;-76
2023/01/14 01:40:17;;;;;;;6.82;1.70;;;6.80;99.90;;;5.14;100.00;100426.53;4994237;28;20038;-76
2023/01/14 01:42:56;;;;;;;10.20;2.00;;;6.80;99.90;;;5.14;100.00;100428.44;4999927;28;20042;-77
2023/01/14 01:45:48;;;;;;;6.75;1.83;;;6.70;99.90;;;5.19;100.00;100442.22;4993586;28;20053;-75
2023/01/14 01:48:22;;;;;;;9.93;2.00;;;6.70;99.90;;;5.11;100.00;100436.91;5003758;28;20029;-75
2023/01/14 01:51:05;;;;;;;5.78;1.60;;;6.70;99.90;;;5.03;100.00;100444.06;5009455;28;20030;-76
2023/01/14 01:53:38;;;;;;;5.50;1.80;;;6.60;99.90;;;4.98;100.00;100445.66;4994823;28;20156;-75
2023/01/14 01:56:06;;;;;;;8.43;1.85;;;6.60;99.90;;;5.01;100.00;100453.41;4993873;28;20046;-76
2023/01/14 01:58:33;;;;;;;;;;;6.60;99.90;;;4.99;100.00;100452.75;5009008;28;20062;-75
2023/01/14 02:01:00;;;;;;;7.63;1.60;;;6.60;99.90;;;4.94;100.00;100458.72;4994525;28;19922;-76
2023/01/14 02:03:39;;;;;;;6.93;1.70;;;6.60;99.90;;;4.99;100.00;100461.69;4991316;28;20112;-76
2023/01/14 02:06:06;;;;;;;7.00;1.58;;;6.60;99.90;;;5.01;100.00;100464.22;5009347;28;20443;-75
2023/01/14 02:08:38;;;;;;;4.75;1.50;;;6.60;99.90;;;4.97;100.00;100466.44;5006662;28;20421;-75
2023/01/14 02:11:47;;;;;;;7.53;1.70;;;6.60;99.90;;;5.03;100.00;100457.59;4990790;28;20497;-76
2023/01/14 02:14:27;;;;;;;8.48;1.75;;;6.60;99.90;;;5.15;100.00;100476.91;4993677;28;20118;-76
2023/01/14 02:17:14;;;;;;;8.63;2.10;;;6.70;99.90;;;5.26;100.00;100474.78;4993745;28;20073;-76
2023/01/14 02:20:18;;;;;;;6.05;1.83;;;6.80;99.90;;;5.31;100.00;100485.88;5007689;28;20161;-76
2023/01/14 02:23:41;;;;;;;7.43;2.10;;;6.90;99.90;;;5.39;100.00;100483.06;5013035;28;20033;-77
2023/01/14 02:26:53;;;;;;;8.15;1.90;;;7.00;99.90;;;5.40;100.00;100484.75;4996246;28;20128;-75
2023/01/14 02:29:49;;;;;;;6.10;1.75;;;7.00;99.90;;;5.41;100.00;100485.59;4990936;28;20041;-75
2023/01/14 02:32:31;;;;;;;9.95;2.20;;;7.00;99.90;;;5.28;100.00;100460.03;5007883;28;20034;-75
2023/01/14 02:35:43;;;;;;;9.32;2.30;;;6.90;99.90;;;5.23;100.00;100475.97;4996797;28;20027;-75
2023/01/14 02:38:59;;;;;;;11.95;2.30;;;6.90;99.90;;;5.23;100.00;100475.97;5003455;28;20034;-76
2023/01/14 02:44:46;;;;;;;7.70;1.75;;;6.80;99.90;;;5.00;100.00;100476.88;4990942;28;20046;-75
2023/01/14 02:47:25;;;;;;;10.20;2.05;;;6.70;99.90;;;5.07;100.00;100495.09;4992471;28;20042;-75
2023/01/14 02:49:56;;;;;;;7.68;2.00;;;6.60;99.90;;;5.04;100.00;100499.00;5006285;28;20116;-76
2023/01/14 02:52:22;;;;;;;12.32;2.33;;;6.60;99.90;;;4.98;100.00;100487.06;4990995;28;20087;-76
2023/01/14 02:55:02;;;;;;;8.55;2.55;;;6.60;99.90;;;4.97;100.00;100498.91;5007263;28;20511;-75
2023/01/14 02:57:57;;;;;;;10.23;1.92;;;6.60;99.90;;;5.02;100.00;100503.75;4990986;28;20061;-76
2023/01/14 03:00:43;;;;;;;11.23;3.50;;;6.60;99.90;;;5.03;100.00;100495.44;4993795;28;20046;-75
2023/01/14 03:03:27;;;;;;;15.38;2.55;;;6.60;99.90;;;5.20;100.00;100492.59;4991301;28;20045;-75
2023/01/14 03:06:29;;;;;;;10.73;2.50;;;6.70;99.90;;;5.33;100.00;100486.53;5007796;28;20034;-75
2023/01/14 03:09:13;;;;;;;7.03;2.08;;;6.90;99.90;;;5.36;100.00;100482.63;4991439;28;20076;-76
2023/01/14 03:11:54;;;;;;;6.72;2.05;;;6.90;99.90;;;5.41;100.00;100474.78;4991883;28;20121;-75
2023/01/14 03:14:32;;;;;;;10.68;1.90;;;7.00;99.90;;;5.50;100.00;100481.78;4999889;28;20042;-76
2023/01/14 03:17:21;;;;;;;7.47;2.15;;;7.10;99.90;;;5.51;100.00;100474.50;5007519;28;20041;-75
2023/01/14 03:20:27;;;;;;;9.65;2.30;;;7.10;99.90;;;5.39;100.00;100466.03;4992946;28;20042;-76
2023/01/14 03:22:57;;;;;;;11.50;2.10;;;7.00;99.90;;;5.54;100.00;100479.53;4980689;28;20054;-75
2023/01/14 03:25:25;;;;;;;7.78;2.10;;;7.10;99.90;;;5.59;100.00;100477.97;4993312;28;20026;-76
2023/01/14 03:28:00;;;;;;;11.98;2.10;;;7.20;99.90;;;5.60;100.00;100484.19;5007929;28;20469;-75
2023/01/14 03:30:35;;;;;;;8.75;2.30;;;7.20;99.90;;;5.61;100.00;100497.56;4992227;28;20034;-75
2023/01/14 03:33:18;;;;;;;11.20;2.30;;;7.20;99.90;;;5.67;100.00;100492.41;5007936;28;20038;-75
2023/01/14 03:35:47;;;;;;;9.70;2.30;;;7.20;99.90;;;5.63;100.00;100472.16;4991686;28;20037;-77
2023/01/14 03:38:28;;;;;;;12.30;2.35;;;7.30;99.90;;;5.73;100.00;100480.81;4998167;28;20080;-76
2023/01/14 03:40:57;;;;;;;10.10;2.67;;;7.30;99.90;;;5.69;100.00;100472.22;4995432;28;20082;-76
2023/01/14 03:43:48;;;;;;;10.10;2.65;;;7.30;99.90;;;5.76;100.00;100484.00;5002589;28;20077;-76
2023/01/14 03:46:15;;;;;;;12.82;2.60;;;7.30;99.90;;;5.69;100.00;100483.06;4997519;28;20121;-76
2023/01/14 03:48:41;;;;;;;9.05;2.65;;;7.30;99.90;;;5.76;100.00;100484.00;4996805;28;20386;-75
2023/01/14 03:51:28;;;;;;;12.73;2.58;;;7.30;99.90;;;5.73;100.00;100486.22;4995253;28;20040;-76
2023/01/14 03:54:18;;;;;;;11.93;2.25;;;7.30;99.90;;;5.78;100.00;100491.09;4996909;28;20125;-75
2023/01/14 03:57:14;;;;;;;9.90;2.65;;;7.30;99.90;;;5.72;100.00;100495.38;4994993;28;20117;-76
2023/01/14 03:59:59;;;;;;;11.13;2.55;;;7.30;99.90;;;5.71;100.00;100486.44;4994463;28;20034;-75
2023/01/14 04:02:28;;;;;;;9.80;2.40;;;7.30;99.90;;;5.71;100.00;100482.88;4996843;28;20072;-75
2023/01/14 04:04:55;;;;;;;12.85;3.60;;;7.30;99.90;;;5.65;100.00;100487.16;5009018;28;20379;-75
2023/01/14 04:07:23;;;;;;;14.43;3.67;;;7.20;99.90;;;5.65;100.00;100487.16;4996234;28;20052;-74
2023/01/14 04:09:49;;;;;;;9.43;3.80;;;7.20;99.90;;;5.64;100.00;100503.63;4994945;28;20049;-75
2023/01/14 04:12:15;;;;;;;12.65;3.88;;;7.20;99.90;;;5.66;100.00;100504.25;5000833;28;20042;-75
2023/01/14 04:17:25;;;;;;;9.18;4.20;;;7.20;99.90;;;5.63;100.00;100494.63;4996085;28;20393;-75
2023/01/14 04:19:51;;;;;;;12.32;4.00;;;7.20;99.90;;;5.56;100.00;100485.59;5010634;28;20026;-75
2023/01/14 04:22:17;;;;;;;14.70;4.32;;;7.20;99.90;;;5.63;100.00;100497.34;5007419;28;20072;-75
2023/01/14 04:24:42;;;;;;;16.42;4.80;;;7.20;99.90;;;5.68;100.00;100497.63;4996055;28;20117;-75
2023/01/14 04:27:08;;;;;;;15.75;5.05;;;7.20;99.90;;;5.65;100.00;100491.75;4995637;28;20046;-75
2023/01/14 04:29:34;;;;;;;16.42;4.40;;;7.20;99.90;;;5.60;100.00;100495.88;4996196;28;20038;-74
2023/01/14 04:32:00;;;;;;;15.82;4.22;;;7.20;99.90;;;5.70;100.00;100487.47;5010177;28;20038;-75
2023/01/14 04:34:26;;;;;;;12.70;4.68;;;7.30;99.90;;;5.72;100.00;100495.38;5002345;28;20386;-74
2023/01/14 04:36:51;;;;;;;15.40;4.70;;;7.30;99.90;;;5.68;100.00;100502.22;4995304;28;20042;-75
2023/01/14 04:39:17;;;;;;;20.65;4.80;;;7.20;99.90;;;5.59;100.00;100502.31;4994690;28;20030;-76
2023/01/14 04:44:27;;;;;;;16.33;4.90;;;7.20;99.90;;;5.65;100.00;100494.47;4995545;28;20039;-75
2023/01/14 04:46:53;;;;;;;15.02;5.43;;;7.30;99.90;;;5.61;100.00;100494.84;4996310;28;20085;-75
2023/01/14 04:49:19;;;;;;;18.10;4.85;;;7.20;99.90;;;5.60;100.00;100493.16;4996674;28;20037;-74
2023/01/14 04:51:44;;;;;;;20.20;5.30;;;7.20;99.90;;;5.64;100.00;100498.19;4994078;28;20038;-76
2023/01/14 04:54:10;;;;;;;19.80;5.10;;;7.20;99.90;;;5.66;100.00;100490.72;4995793;28;20045;-76
2023/01/14 04:56:36;;;;;;;15.93;4.70;;;7.20;99.90;;;5.70;100.00;100494.72;4996026;28;20041;-75
2023/01/14 04:59:03;;;;;;;17.13;4.72;;;7.20;99.90;;;5.67;100.00;100490.53;5007669;28;20376;-76
2023/01/14 05:01:29;;;;;;;13.88;4.55;;;7.20;99.90;;;5.74;100.00;100506.88;4994163;28;20054;-75
2023/01/14 05:03:58;;;;;;;17.45;4.97;;;7.30;99.90;;;5.72;100.00;100506.22;4995898;28;20034;-75
2023/01/14 05:06:29;;;;;;;19.35;4.85;;;7.30;99.90;;;5.69;100.00;100507.41;4995749;28;20045;-76
2023/01/14 05:08:55;;;;;;;20.02;6.28;;;7.30;99.90;;;5.69;100.00;100488.47;5003327;28;20046;-76
2023/01/14 05:11:21;;;;;;;15.48;4.38;;;7.30;99.90;;;5.72;100.00;100495.38;4995111;28;20469;-76
2023/01/14 05:13:47;;;;;;;19.13;4.85;;;7.30;99.90;;;5.71;100.00;100489.16;4994927;28;20026;-76
2023/01/14 05:16:17;;;;;;;16.60;4.68;;;7.30;99.90;;;5.68;100.00;100494.09;4995044;28;20371;-76
2023/01/14 05:18:44;;;;;;;21.67;5.50;;;7.30;99.90;;;5.64;100.00;100488.19;4994809;28;20394;-74
2023/01/14 05:21:11;;;;;;;14.48;5.20;;;7.20;99.90;;;5.62;100.00;100490.25;4994950;28;20443;-75
2023/01/14 05:23:38;;;;;;;16.30;4.05;;;7.20;99.90;;;5.64;100.00;100496.31;5002268;28;20044;-74
2023/01/14 05:26:04;;;;;;;17.48;4.60;;;7.20;99.90;;;5.61;100.00;100494.84;4995781;28;20042;-75
2023/01/14 05:28:30;;;;;;;17.42;4.47;;;7.20;99.90;;;5.58;100.00;100489.81;4994542;28;20529;-75
2023/01/14 05:30:56;;;;;;;15.60;4.22;;;7.10;99.90;;;5.58;100.00;100481.69;4992736;28;20037;-73
2023/01/14 05:33:21;;;;;;;21.98;4.55;;;7.10;99.90;;;5.58;100.00;100475.44;4992892;28;20032;-75
2023/01/14 05:35:47;;;;;;;21.73;4.15;;;7.10;99.90;;;5.55;100.00;100473.91;4993867;28;20421;-76
2023/01/14 05:38:13;;;;;;;16.83;3.80;;;7.10;99.90;;;5.52;100.00;100468.06;5003766;28;20095;-75
2023/01/14 05:40:38;;;;;;;19.50;4.82;;;7.10;99.90;;;5.55;100.00;100481.22;4998488;28;20398;-74
2023/01/14 05:45:49;;;;;;;15.43;3.63;;;7.10;99.90;;;5.54;100.00;100477.66;4993242;28;20038;-76
2023/01/14 05:48:18;;;;;;;18.45;3.80;;;7.10;99.90;;;5.39;100.00;100472.25;4999558;28;20091;-75
2023/01/14 05:50:44;;;;;;;14.88;3.78;;;7.00;99.90;;;5.27;100.00;100480.00;4994138;28;20050;-75
2023/01/14 05:53:11;;;;;;;15.35;3.30;;;6.90;99.90;;;5.23;100.00;100475.97;5016623;28;20054;-74
2023/01/14 05:55:37;;;;;;;19.77;3.97;;;6.80;99.90;;;5.17;100.00;100469.47;5011758;28;20092;-74
2023/01/14 05:58:05;;;;;;;17.73;4.65;;;6.70;99.90;;;5.12;100.00;100455.66;4994340;28;20027;-75
2023/01/14 06:06:25;;;;;;;15.60;3.50;;;6.80;99.90;;;5.33;100.00;100478.41;4995319;28;20041;-75
2023/01/14 06:08:54;;;;;;;17.25;3.42;;;6.90;99.90;;;5.43;100.00;100461.91;4994048;28;20042;-75
2023/01/14 06:11:21;;;;;;;15.60;3.53;;;7.00;99.90;;;5.49;100.00;100438.69;4994442;28;20513;-75
2023/01/14 06:13:50;;;;;;;18.10;3.63;;;7.00;99.90;;;5.56;100.00;100461.25;4994439;28;20208;-75
2023/01/14 06:16:19;;;;;;;19.60;3.90;;;7.10;99.90;;;5.38;100.00;100442.69;5001155;28;20044;-75
2023/01/14 06:18:46;;;;;;;18.05;3.63;;;7.00;99.90;;;5.46;100.00;100450.72;4976800;28;20026;-75
2023/01/14 06:21:18;;;;;;;17.33;4.00;;;7.10;99.90;;;5.43;100.00;100438.38;4998991;28;20046;-75
2023/01/14 06:23:45;;;;;;;17.70;3.42;;;7.00;99.90;;;5.44;100.00;100439.22;4991988;28;20121;-75
2023/01/14 06:26:18;;;;;;;20.95;4.18;;;7.00;99.90;;;5.31;100.00;100427.22;4993162;28;20213;-74
2023/01/14 06:28:44;;;;;;;16.48;4.10;;;7.00;99.90;;;5.40;100.00;100446.06;4997284;28;20034;-76
2023/01/14 06:31:16;;;;;;;15.95;3.65;;;7.00;99.90;;;5.36;100.00;100423.94;4993534;28;20046;-75
2023/01/14 06:33:44;;;;;;;19.02;3.97;;;7.00;99.90;;;5.29;100.00;100415.72;4999633;28;20026;-75
2023/01/14 06:36:11;;;;;;;16.57;3.30;;;6.90;99.90;;;5.33;100.00;100421.59;4993490;28;20541;-75
2023/01/14 06:38:38;;;;;;;14.63;4.65;;;6.90;99.90;;;5.37;100.00;100424.78;4993904;28;20775;-75
2023/01/14 06:41:07;;;;;;;17.45;4.20;;;6.90;99.90;;;5.43;100.00;100429.44;4993284;28;20050;-73
2023/01/14 06:43:34;;;;;;;18.70;3.95;;;7.00;99.90;;;5.47;100.00;100417.22;4994325;28;20038;-74
2023/01/14 06:46:00;;;;;;;18.92;3.63;;;7.00;99.90;;;5.41;100.00;100413.38;4999747;28;20121;-75
2023/01/14 06:48:27;;;;;;;15.10;3.67;;;7.00;99.90;;;5.52;100.00;100433.72;4995437;28;20053;-77
2023/01/14 06:50:53;;;;;;;13.40;3.78;;;7.10;99.90;;;5.54;100.00;100425.41;4982271;28;20038;-77
2023/01/14 06:53:18;;;;;;;21.60;3.53;;;7.10;99.90;;;5.51;100.00;100415.78;5000298;28;20035;-77
2023/01/14 06:55:45;;;;;;;14.95;3.13;;;7.10;99.90;;;5.47;100.00;100425.31;4994714;28;20132;-78
2023/01/14 06:58:11;;;;;;;18.23;3.47;;;7.00;99.90;;;5.39;100.00;100417.31;4992466;28;20049;-76
2023/01/14 07:00:37;;;;;;;12.82;3.22;;;7.00;99.90;;;5.35;100.00;100421.44;4993096;28;20132;-76
2023/01/14 07:03:04;;;;;;;15.93;3.78;;;7.00;99.90;;;5.25;100.00;100411.72;5002929;28;20034;-76
2023/01/14 07:05:29;;;;;;;12.10;3.22;;;6.90;99.90;;;5.17;100.00;100409.97;5006501;28;20130;-78
2023/01/14 07:07:55;;;;;;;16.30;3.50;;;6.80;99.90;;;5.06;100.00;100394.19;5020400;28;20397;-78
2023/01/14 07:10:21;;;;;;;14.88;2.97;;;6.70;99.90;;;5.11;100.00;100402.59;5009347;28;20038;-79
2023/01/14 07:12:49;;;;;;;16.77;2.88;;;6.70;99.90;;;5.23;100.00;100400.25;5010249;28;20378;-78
2023/01/14 07:15:19;;;;;;;15.90;3.45;;;6.70;99.90;;;5.12;100.00;100390.75;5005851;28;20034;-77
2023/01/14 07:17:46;;;;;;;13.18;2.70;;;6.80;99.90;;;5.10;100.00;100394.69;5024610;28;20063;-76
2023/01/14 07:20:13;;;;;;;16.60;2.97;;;6.70;99.90;;;5.04;100.00;100386.28;5012464;28;20143;-78
2023/01/14 07:22:39;;;;;;;15.32;3.03;;;6.60;99.90;;;5.06;100.00;100385.25;5012199;28;20064;-76
2023/01/14 07:25:06;;;;;;;15.15;2.83;;;6.60;99.90;;;5.03;100.00;100392.69;5010740;28;20033;-77
2023/01/14 07:27:33;;;;;;;16.77;2.92;;;6.60;99.90;;;5.06;100.00;100377.16;5027384;28;20029;-77
2023/01/14 07:29:59;;;;;;;19.95;2.90;;;6.60;99.90;;;5.15;100.00;100381.44;5005156;28;20049;-78
2023/01/14 07:32:26;;;;;;;14.15;3.35;;;6.70;99.90;;;5.16;100.00;100381.22;5021856;28;20128;-78
2023/01/14 07:34:52;;;;;;;17.20;3.05;;;6.70;99.90;;;5.15;100.00;100373.31;4997261;28;20633;-77
2023/01/14 07:37:18;;;;;;;14.30;2.75;;;6.80;99.90;;;5.19;100.00;100380.00;4997280;28;20026;-79
2023/01/14 07:39:44;;;;;;;12.70;2.75;;;6.80;99.90;;;4.97;100.00;100338.53;4996180;28;20042;-79
2023/01/14 07:42:10;;;;;;;13.65;2.40;;;6.70;99.90;;;5.14;100.00;100371.63;4996738;28;20042;-78
2023/01/14 07:44:36;;;;;;;12.27;2.45;;;6.70;99.90;;;5.03;100.00;100337.78;5006839;28;20444;-78
2023/01/14 07:47:02;;;;;;;14.43;2.47;;;6.70;99.90;;;5.23;100.00;100350.75;5002821;28;20214;-77
2023/01/14 07:49:27;;;;;;;17.60;2.60;;;6.80;99.90;;;5.17;100.00;100330.69;5000719;28;20058;-78
2023/01/14 07:51:54;;;;;;;13.10;2.83;;;6.80;99.90;;;5.26;100.00;100334.13;5014562;28;20150;-78
2023/01/14 07:54:20;;;;;;;15.05;2.47;;;6.80;99.90;;;5.23;100.00;100326.41;5008297;28;20034;-79
2023/01/14 07:56:49;;;;;;;12.93;2.45;;;6.80;99.90;;;5.14;100.00;100333.78;5012765;28;20026;-79
2023/01/14 07:59:15;;;;;;;12.30;2.28;;;6.80;99.90;;;5.18;99.18;100324.25;5008670;28;20486;-76
2023/01/14 08:01:43;;;;;;;15.32;2.70;;;6.80;99.90;;;5.24;98.41;100331.59;5008005;28;20060;-79
2023/01/14 08:04:09;;;;;;;17.23;2.45;;;6.80;99.90;;;5.25;98.36;100330.56;5006117;28;20030;-78
2023/01/14 08:06:38;;;;;;;12.18;2.60;;;6.90;99.90;;;5.23;98.37;100321.00;5013083;28;20096;-76
2023/01/14 08:09:04;;;;;;;11.85;2.10;;;6.80;99.90;;;5.24;98.42;100328.06;5007127;28;20045;-78
2023/01/14 08:11:33;;;;;;;13.48;2.58;;;6.80;99.90;;;5.21;97.97;100321.16;5006408;28;20744;-78
2023/01/14 08:13:59;;;;;;;11.65;2.45;;;6.80;99.90;;;5.16;98.30;100310.09;4999960;28;20042;-79
2023/01/14 08:16:25;;;;;;;16.35;3.40;;;6.80;99.90;;;5.18;99.36;100324.25;4995779;28;20108;-78
2023/01/14 08:18:51;;;;;;;18.40;3.40;;;6.80;99.90;;;5.16;97.78;100313.59;5007059;28;20383;-77
2023/01/14 08:21:19;;;;;;;13.90;2.28;;;6.80;99.90;;;5.23;97.12;100307.47;5025633;28;20070;-78
2023/01/14 08:23:45;;;;;;;15.98;2.67;;;6.80;99.90;;;5.30;96.31;100320.03;5010189;28;20393;-78
2023/01/14 08:26:13;;;;;;;17.05;2.97;;;6.90;99.90;;;5.28;95.63;100319.38;5010354;28;20038;-78
2023/01/14 08:28:40;;;;;;;17.38;2.25;;;6.90;99.90;;;5.26;96.77;100328.72;5012946;28;20087;-78
2023/01/14 08:31:13;;;;;;;17.15;2.88;;;6.90;99.90;;;5.25;96.14;100319.75;5007774;28;20113;-78
2023/01/14 08:33:41;;;;;;;14.85;2.50;;;6.90;99.90;;;5.24;96.40;100328.06;5007350;28;20042;-78
2023/01/14 08:36:16;;;;;;;13.95;2.08;;;6.90;99.90;;;5.32;95.70;100319.84;5007509;28;20038;-77
2023/01/14 08:38:46;;;;;;;14.82;2.17;;;6.90;99.90;;;5.30;94.90;100317.34;5012450;28;20413;-78
2023/01/14 08:41:15;;;;;;;21.17;2.65;;;6.90;99.90;;;5.29;94.91;100307.53;5000712;28;20077;-78
2023/01/14 08:43:42;;;;;;;10.63;2.38;;;7.00;99.90;;;5.38;94.34;100318.25;5002151;28;20402;-78
2023/01/14 08:46:10;;;;;;;10.70;2.08;;;7.00;99.90;;;5.31;94.34;100293.81;4996194;28;20125;-78
2023/01/14 08:48:36;;;;;;;12.82;2.42;;;7.00;99.90;;;5.38;94.14;100304.72;5008089;28;20458;-78
2023/01/14 08:51:06;;;;;;;12.98;2.38;;;7.00;99.90;;;5.36;93.92;100293.25;4997315;28;20256;-79
2023/01/14 08:53:35;;;;;;;8.07;1.83;;;7.00;99.90;;;5.32;94.86;100293.63;5006029;28;20049;-76
2023/01/14 08:56:03;;;;;;;13.90;1.90;;;7.00;99.90;;;5.28;94.60;100272.56;5021908;28;20088;-77
2023/01/14 08:58:29;;;;;;;12.60;2.30;;;7.00;99.90;;;5.30;95.36;100276.75;5000704;28;20038;-77
2023/01/14 09:01:02;;;;;;;9.07;1.73;;;7.00;99.90;;;5.27;96.25;100273.59;5010046;28;20026;-76
2023/01/14 09:03:30;;;;;;;13.07;2.38;;;6.90;99.90;;;5.19;98.71;100274.53;4993905;28;20034;-77
2023/01/14 09:06:01;;;;;;;12.37;2.17;;;6.90;99.90;;;5.15;100.00;100275.94;4995138;28;20022;-76
2023/01/14 09:19:42;;;;;;;14.15;2.13;;;6.80;99.90;;;5.20;100.00;100246.47;5001792;28;20131;-77
2023/01/14 09:22:11;;;;;;;12.23;1.90;;;6.80;99.90;;;5.21;100.00;100231.09;5008460;28;20141;-76
2023/01/14 09:24:36;;;;;;;10.02;1.60;;;6.80;99.90;;;5.19;100.00;100228.56;5010603;28;20116;-74
2023/01/14 09:27:02;;;;;;;10.35;2.33;;;6.90;99.90;;;5.18;100.00;100211.50;5011482;28;20516;-74
2023/01/14 09:29:28;;;;;;;12.50;2.15;;;6.90;99.90;;;5.19;100.00;100215.03;5007836;28;20048;-76
2023/01/14 09:31:54;;;;;;;9.95;1.88;;;6.80;99.90;;;5.23;100.00;100207.38;5007432;28;20406;-77
2023/01/14 09:34:19;;;;;;;10.15;1.77;;;6.90;99.90;;;5.22;99.82;100208.41;5010686;28;20041;-76
2023/01/14 09:36:45;;;;;;;9.38;1.80;;;6.90;99.90;;;5.25;100.00;100214.25;5008816;28;20034;-77
2023/01/14 09:39:11;;;;;;;11.15;2.00;;;6.90;99.90;;;5.26;100.00;100207.00;5007447;28;20362;-77
2023/01/14 09:41:56;;;;;;;11.02;1.92;;;6.90;99.90;;;5.30;99.53;100216.41;5011347;28;20037;-76
2023/01/14 09:44:23;;;;;;;13.25;2.03;;;6.90;99.90;;;5.31;98.97;100212.66;5007585;28;20489;-76
2023/01/14 09:46:53;;;;;;;13.45;2.42;;;6.90;99.90;;;5.36;99.03;100212.09;5011366;28;20060;-76
2023/01/14 09:49:27;;;;;;;11.93;2.67;;;6.90;99.90;;;5.41;99.07;100213.16;5010400;28;20029;-76
2023/01/14 09:52:17;;;;;;;11.90;2.30;;;7.00;99.90;;;5.38;98.52;100208.16;5013034;28;20038;-77
2023/01/14 09:55:32;;;;;;;10.00;1.65;;;7.00;99.90;;;5.43;98.90;100197.56;4997142;28;20097;-76
2023/01/14 09:58:04;;;;;;;14.05;1.83;;;7.00;99.90;;;5.40;98.08;100178.22;4971859;28;20039;-75
2023/01/14 10:00:45;;;;;;;7.57;1.60;;;7.10;99.90;;;5.45;97.06;100183.88;5008724;28;20117;-76
2023/01/14 10:03:51;;;;;;;11.48;2.40;;;7.10;99.90;;;5.47;97.78;100176.38;4996010;28;20046;-76
2023/01/14 10:06:18;;;;;;;7.55;2.05;;;7.10;99.90;;;5.33;96.73;100154.66;4995349;28;20042;-75
2023/01/14 10:09:02;;;;;;;14.20;2.25;;;7.10;99.90;;;5.53;95.88;100147.72;5001746;28;20140;-75
2023/01/14 10:11:35;;;;;;;11.50;2.17;;;7.10;99.90;;;5.49;96.02;100151.84;5011213;28;20038;-75
2023/01/14 10:14:13;;;;;;;12.48;2.22;;;7.10;99.90;;;5.51;95.95;100128.16;5002121;28;20056;-74
2023/01/14 10:16:54;;;;;;;12.60;2.05;;;7.10;99.90;;;5.55;95.63;100124.81;4999485;28;20076;-75
2023/01/14 10:19:40;;;;;;;9.45;1.77;;;7.20;99.90;;;5.59;95.04;100114.47;5002874;28;20042;-76
2023/01/14 10:22:50;;;;;;;11.35;1.98;;;7.20;99.90;;;5.57;95.25;100111.13;5007554;28;20046;-76
2023/01/14 10:25:20;;;;;;;10.07;1.67;;;7.20;99.90;;;5.52;97.05;100100.88;5000474;28;20498;-76
2023/01/14 10:27:55;;;;;;;12.13;2.17;;;7.10;99.90;;;5.45;98.74;100091.88;4994121;28;20049;-76
2023/01/14 10:30:30;;;;;;;11.82;1.95;;;7.10;99.90;;;5.39;100.00;100098.06;4994434;28;20046;-77
2023/01/14 10:32:58;;;;;;;12.82;2.28;;;7.00;99.90;;;5.35;100.00;100099.50;4996076;28;20048;-77
2023/01/14 10:35:33;;;;;;;10.10;1.80;;;6.90;99.90;;;5.27;100.00;100086.97;4995534;28;20185;-77
2023/01/14 10:38:00;;;;;;;7.28;1.50;;;6.90;99.90;;;5.30;100.00;100078.44;4995913;28;20125;-76
2023/01/14 10:40:29;;;;;;;9.67;1.93;;;6.90;99.90;;;5.30;100.00;100073.03;4998445;28;20091;-75
2023/01/14 10:42:58;;;;;;;10.07;1.83;;;6.90;99.90;;;5.36;100.00;100066.84;4998870;28;20057;-76
2023/01/14 10:45:24;;;;;;;11.10;2.33;;;7.00;99.90;;;5.37;100.00;100057.69;4998110;28;20058;-76
2023/01/14 10:47:55;;;;;;;10.65;2.25;;;7.00;99.90;;;5.38;100.00;100050.41;4993561;28;20429;-76
2023/01/14 10:50:26;;;;;;;10.07;1.73;;;7.00;99.90;;;5.30;100.00;100046.84;4990691;28;20490;-76
2023/01/14 10:52:53;;;;;;;10.05;2.03;;;6.90;99.90;;;5.22;100.00;100041.56;4993842;28;20049;-76
2023/01/14 10:55:28;;;;;;;11.30;2.00;;;6.90;99.90;;;5.11;100.00;100028.59;4993906;28;20474;-76
2023/01/14 10:58:06;;;;;;;8.98;1.60;;;6.70;99.90;;;4.98;100.00;100029.31;4994288;28;20034;-75
2023/01/14 11:00:41;;;;;;;11.57;2.00;;;6.60;99.90;;;4.92;100.00;100039.03;4994615;28;20035;-76
2023/01/14 11:03:32;;;;;;;11.00;2.75;;;6.50;99.90;;;4.87;100.00;100015.28;4992718;28;20528;-76